Time;durP1;ratioP1;P1;durP2;ratioP2;P2;SDS_P1;SDS_P2;PMS_P1;PMS_P2;Temp;Humidity;BMP_temperature;BMP_pressure;BME280_temperature;BME280_humidity;BME280_pressure;Samples;Min_cycle;Max_cycle;Signal;HPM_P1;HPM_P2
2024/01/25 00:01:09;;;;;;;0.50;0.50;;;10.90;99.90;;;;;;10463327;28;20201;-83
2024/01/25 00:06:11;;;;;;;0.40;0.40;;;10.90;99.90;;;;;;10468265;28;20232;-82
2024/01/25 00:11:15;;;;;;;0.50;0.50;;;10.90;99.90;;;;;;10453216;28;20630;-83
2024/01/25 00:16:17;;;;;;;0.60;0.60;;;11.00;99.90;;;;;;10482846;28;20224;-83
2024/01/25 00:21:20;;;;;;;0.50;0.50;;;11.00;99.90;;;;;;10452328;28;20212;-83
2024/01/25 00:26:23;;;;;;;0.50;0.50;;;11.00;99.90;;;;;;10468290;28;20676;-86
2024/01/25 00:31:27;;;;;;;0.40;0.40;;;11.10;99.90;;;;;;10467198;28;20585;-81
2024/01/25 00:36:30;;;;;;;0.40;0.40;;;11.10;99.90;;;;;;10462588;28;20220;-79
2024/01/25 00:41:34;;;;;;;0.50;0.50;;;11.10;99.90;;;;;;10445004;28;20188;-81
2024/01/25 00:46:37;;;;;;;0.40;0.40;;;11.10;99.90;;;;;;10451773;28;20236;-81
2024/01/25 00:51:42;;;;;;;0.43;0.43;;;11.10;99.90;;;;;;10433016;28;20978;-81
2024/01/25 00:56:48;;;;;;;0.40;0.40;;;11.10;99.90;;;;;;10433807;28;20606;-82
2024/01/25 01:01:54;;;;;;;0.40;0.40;;;11.10;99.90;;;;;;10437262;28;20291;-82
2024/01/25 01:06:57;;;;;;;0.40;0.40;;;11.10;99.90;;;;;;10437903;28;20676;-81
2024/01/25 01:12:00;;;;;;;0.40;0.40;;;11.10;99.90;;;;;;10452583;28;20615;-80
2024/01/25 01:17:03;;;;;;;0.40;0.40;;;11.10;99.90;;;;;;10451907;28;20244;-80
2024/01/25 01:22:05;;;;;;;0.40;0.40;;;11.20;99.90;;;;;;10434363;28;20921;-80
2024/01/25 01:27:09;;;;;;;0.40;0.40;;;11.20;99.90;;;;;;10433106;28;20317;-80
2024/01/25 01:32:11;;;;;;;0.40;0.40;;;11.20;99.90;;;;;;10444247;28;20204;-79
2024/01/25 01:37:14;;;;;;;0.30;0.30;;;11.20;99.90;;;;;;10442064;28;20642;-80
2024/01/25 01:42:17;;;;;;;0.43;0.43;;;11.20;99.90;;;;;;10440697;28;20255;-83
2024/01/25 01:47:20;;;;;;;0.40;0.40;;;11.20;99.90;;;;;;10441506;28;20229;-80
2024/01/25 01:52:23;;;;;;;0.40;0.40;;;11.20;99.90;;;;;;10449928;28;20196;-84
2024/01/25 01:57:28;;;;;;;0.40;0.40;;;11.20;99.90;;;;;;10442535;28;20242;-81
2024/01/25 02:02:31;;;;;;;0.43;0.43;;;11.20;99.90;;;;;;10454497;28;20606;-85
2024/01/25 02:07:33;;;;;;;0.50;0.50;;;11.20;99.90;;;;;;10464296;28;20216;-82
2024/01/25 02:12:37;;;;;;;0.40;0.40;;;11.20;99.90;;;;;;10450607;28;20200;-82
2024/01/25 02:17:40;;;;;;;0.40;0.40;;;11.20;99.90;;;;;;10453556;28;20642;-83
2024/01/25 02:22:43;;;;;;;0.40;0.40;;;11.20;99.90;;;;;;10464549;28;20698;-81
2024/01/25 02:27:46;;;;;;;0.50;0.50;;;11.20;99.90;;;;;;10448598;28;20283;-81
2024/01/25 02:32:48;;;;;;;0.40;0.40;;;11.20;99.90;;;;;;10471227;28;20271;-80
2024/01/25 02:37:52;;;;;;;0.40;0.40;;;11.20;99.90;;;;;;10461313;28;20221;-81
2024/01/25 02:42:54;;;;;;;0.50;0.50;;;11.10;99.90;;;;;;10461471;28;20200;-81
2024/01/25 02:47:57;;;;;;;0.40;0.40;;;11.10;99.90;;;;;;10460495;28;20232;-80
2024/01/25 02:53:00;;;;;;;0.40;0.40;;;11.10;99.90;;;;;;10470138;28;20198;-85
2024/01/25 02:58:03;;;;;;;0.40;0.40;;;11.10;99.90;;;;;;10460243;28;20213;-80
2024/01/25 03:03:05;;;;;;;0.40;0.40;;;11.10;99.90;;;;;;10458162;28;20198;-83
2024/01/25 03:08:09;;;;;;;0.50;0.50;;;11.10;99.90;;;;;;10449968;28;20232;-82
2024/01/25 03:13:11;;;;;;;0.50;0.50;;;11.10;99.90;;;;;;10445932;28;20240;-81
2024/01/25 03:18:14;;;;;;;0.50;0.50;;;11.10;99.90;;;;;;10456957;28;20783;-82
2024/01/25 03:23:18;;;;;;;0.60;0.60;;;11.10;99.90;;;;;;10436219;28;20620;-81
2024/01/25 03:28:20;;;;;;;0.40;0.40;;;11.10;99.90;;;;;;10443232;28;20261;-80
2024/01/25 03:33:22;;;;;;;0.40;0.40;;;11.10;99.90;;;;;;10461066;28;20247;-80
2024/01/25 03:38:26;;;;;;;0.50;0.50;;;11.00;99.90;;;;;;10464278;28;20217;-81
2024/01/25 03:43:28;;;;;;;0.40;0.40;;;11.00;99.90;;;;;;10432971;28;20202;-80
2024/01/25 03:48:31;;;;;;;0.60;0.60;;;11.00;99.90;;;;;;10464905;28;20193;-80
2024/01/25 03:53:35;;;;;;;0.50;0.50;;;11.00;99.90;;;;;;10431910;28;20202;-83
2024/01/25 03:58:38;;;;;;;0.57;0.57;;;11.00;99.90;;;;;;10430392;28;20233;-82
2024/01/25 04:03:41;;;;;;;0.60;0.60;;;11.00;99.90;;;;;;10430362;28;20206;-82
2024/01/25 04:08:44;;;;;;;0.80;0.80;;;10.90;99.90;;;;;;10461153;28;20231;-82
2024/01/25 04:13:47;;;;;;;0.90;0.90;;;10.90;99.90;;;;;;10443631;28;20275;-82
2024/01/25 04:18:49;;;;;;;0.70;0.70;;;10.90;99.90;;;;;;10437080;28;20222;-80
2024/01/25 04:23:53;;;;;;;0.80;0.80;;;10.90;99.90;;;;;;10427142;28;20214;-82
2024/01/25 04:28:55;;;;;;;0.90;0.90;;;10.90;99.90;;;;;;10429812;28;20209;-81
2024/01/25 04:33:58;;;;;;;0.87;0.87;;;10.90;99.90;;;;;;10441284;28;20225;-80
2024/01/25 04:39:01;;;;;;;1.00;1.00;;;10.80;99.90;;;;;;10449082;28;20225;-79
2024/01/25 04:44:05;;;;;;;0.90;0.90;;;10.80;99.90;;;;;;10464940;28;20220;-80
2024/01/25 04:49:07;;;;;;;0.70;0.70;;;10.80;99.90;;;;;;10462044;28;20205;-82
2024/01/25 04:54:12;;;;;;;0.60;0.60;;;10.80;99.90;;;;;;10456104;28;20233;-79
2024/01/25 04:59:15;;;;;;;0.60;0.60;;;10.80;99.90;;;;;;10439631;28;20335;-84
2024/01/25 05:04:17;;;;;;;0.90;0.90;;;10.70;99.90;;;;;;10442195;28;20224;-81
2024/01/25 05:09:21;;;;;;;0.90;0.90;;;10.70;99.90;;;;;;10457449;28;20208;-81
2024/01/25 05:14:23;;;;;;;0.57;0.57;;;10.70;99.90;;;;;;10420458;28;20562;-83
2024/01/25 05:19:26;;;;;;;0.70;0.70;;;10.60;99.90;;;;;;10442705;28;20221;-82
2024/01/25 05:24:30;;;;;;;0.70;0.70;;;10.50;99.90;;;;;;10423844;28;20222;-81
2024/01/25 05:29:32;;;;;;;0.70;0.70;;;10.40;99.90;;;;;;10432177;28;20299;-80
2024/01/25 05:34:34;;;;;;;0.80;0.80;;;10.30;99.90;;;;;;10438082;28;20226;-81
2024/01/25 05:39:38;;;;;;;0.70;0.70;;;10.30;99.90;;;;;;10445230;28;20225;-82
2024/01/25 05:44:41;;;;;;;0.20;0.20;;;10.20;99.90;;;;;;10488008;22;20255;-80
2024/01/25 05:49:43;;;;;;;0.60;0.60;;;10.20;99.90;;;;;;10469957;28;20189;-80
2024/01/25 05:54:47;;;;;;;0.67;0.67;;;10.10;99.90;;;;;;10484922;28;20213;-79
2024/01/25 05:59:49;;;;;;;0.60;0.60;;;10.10;99.90;;;;;;10451197;28;20717;-79
2024/01/25 06:04:51;;;;;;;0.60;0.60;;;10.00;99.90;;;;;;10431876;28;20209;-80
2024/01/25 06:09:58;;;;;;;0.77;0.77;;;10.00;99.90;;;;;;10424177;28;20252;-79
2024/01/25 06:15:01;;;;;;;0.70;0.70;;;10.00;99.90;;;;;;10448242;28;20218;-79
2024/01/25 06:20:04;;;;;;;0.40;0.40;;;9.90;99.90;;;;;;10447083;28;20226;-80
2024/01/25 06:25:08;;;;;;;0.60;0.60;;;9.90;99.90;;;;;;10448375;28;20218;-80
2024/01/25 06:30:12;;;;;;;0.60;0.60;;;9.80;99.90;;;;;;10447646;28;20660;-80
2024/01/25 06:35:15;;;;;;;0.50;0.50;;;9.80;99.90;;;;;;10447698;28;20717;-80
2024/01/25 06:40:19;;;;;;;0.30;0.30;;;9.80;99.90;;;;;;10438068;28;20229;-80
2024/01/25 06:45:21;;;;;;;0.30;0.30;;;9.70;99.90;;;;;;10443697;28;20222;-79
2024/01/25 06:50:24;;;;;;;0.40;0.40;;;9.70;99.90;;;;;;10445151;28;20204;-80
2024/01/25 06:55:28;;;;;;;0.40;0.40;;;9.70;99.90;;;;;;10428268;28;20228;-80
2024/01/25 07:00:30;;;;;;;0.20;0.20;;;9.60;99.90;;;;;;10429213;28;20222;-80
2024/01/25 07:05:35;;;;;;;0.30;0.30;;;9.70;99.90;;;;;;10448084;28;20217;-80
2024/01/25 07:10:38;;;;;;;0.30;0.30;;;9.60;99.90;;;;;;10438301;28;20186;-80
2024/01/25 07:15:41;;;;;;;0.30;0.30;;;9.60;99.90;;;;;;10428778;28;20210;-80
2024/01/25 07:20:44;;;;;;;0.40;0.40;;;9.60;99.90;;;;;;10445797;28;20217;-80
2024/01/25 07:25:47;;;;;;;0.30;0.30;;;9.60;99.90;;;;;;10448156;28;20683;-80
2024/01/25 07:30:50;;;;;;;0.40;0.40;;;9.60;99.90;;;;;;10450541;28;20201;-80
2024/01/25 07:35:52;;;;;;;0.40;0.40;;;9.50;99.90;;;;;;10448319;28;20727;-78
2024/01/25 07:40:56;;;;;;;0.43;0.43;;;9.40;99.90;;;;;;10472053;28;20218;-79
2024/01/25 07:45:58;;;;;;;0.30;0.30;;;9.30;99.90;;;;;;10471396;28;20232;-78
2024/01/25 07:51:01;;;;;;;0.40;0.40;;;9.30;99.90;;;;;;10452963;28;20182;-80
2024/01/25 07:56:07;;;;;;;0.37;0.37;;;9.20;99.90;;;;;;10439216;28;20217;-80
2024/01/25 08:01:09;;;;;;;0.40;0.40;;;9.10;99.90;;;;;;10435269;28;20218;-80
2024/01/25 08:06:12;;;;;;;0.40;0.40;;;9.10;99.90;;;;;;10438601;28;20288;-80
2024/01/25 08:11:18;;;;;;;0.40;0.40;;;9.10;99.90;;;;;;10438610;28;20198;-80
2024/01/25 08:16:21;;;;;;;0.50;0.50;;;9.10;99.90;;;;;;10419693;28;20222;-80
2024/01/25 08:21:23;;;;;;;0.40;0.40;;;9.20;99.90;;;;;;10438262;28;20218;-79
2024/01/25 08:26:27;;;;;;;0.50;0.50;;;9.20;99.90;;;;;;10437562;28;20268;-79
2024/01/25 08:31:29;;;;;;;0.30;0.30;;;9.20;99.90;;;;;;10440754;28;20193;-80
2024/01/25 08:36:31;;;;;;;0.40;0.40;;;9.30;99.90;;;;;;10439551;28;20222;-80
2024/01/25 08:41:35;;;;;;;0.27;0.27;;;9.30;99.90;;;;;;10438839;28;20249;-80
2024/01/25 08:46:38;;;;;;;0.30;0.30;;;9.30;99.90;;;;;;10428950;28;20222;-79
2024/01/25 08:51:40;;;;;;;0.30;0.30;;;9.40;99.90;;;;;;10430174;28;20201;-79
2024/01/25 08:56:44;;;;;;;0.23;0.23;;;9.40;99.90;;;;;;10428937;28;20283;-80
2024/01/25 09:01:46;;;;;;;0.30;0.30;;;9.40;99.90;;;;;;10426793;28;20745;-80
2024/01/25 09:06:48;;;;;;;0.20;0.20;;;9.50;99.90;;;;;;10427926;28;20225;-80
2024/01/25 09:11:52;;;;;;;0.27;0.27;;;9.50;99.90;;;;;;10428645;28;20198;-80
2024/01/25 09:16:55;;;;;;;0.40;0.40;;;9.60;99.90;;;;;;10425299;28;20707;-80
2024/01/25 09:22:01;;;;;;;0.23;0.23;;;9.60;99.90;;;;;;10426989;28;20280;-80
2024/01/25 09:27:05;;;;;;;0.23;0.23;;;9.70;99.90;;;;;;10424695;28;20221;-80
2024/01/25 09:32:08;;;;;;;0.37;0.37;;;9.80;99.90;;;;;;10425745;28;20576;-80
2024/01/25 09:37:11;;;;;;;0.30;0.30;;;9.90;99.90;;;;;;10421524;28;20228;-80
2024/01/25 09:42:15;;;;;;;0.30;0.30;;;10.10;99.90;;;;;;10377150;28;20757;-80
2024/01/25 09:47:19;;;;;;;0.30;0.30;;;10.20;99.90;;;;;;10396537;28;20734;-80
2024/01/25 09:52:25;;;;;;;0.30;0.30;;;10.30;99.90;;;;;;10398869;28;20195;-80
2024/01/25 09:57:31;;;;;;;0.20;0.20;;;10.40;99.90;;;;;;10410513;28;20940;-80
2024/01/25 10:02:34;;;;;;;0.30;0.30;;;10.50;99.90;;;;;;10411605;28;20248;-79
2024/01/25 10:07:37;;;;;;;0.30;0.30;;;10.70;99.90;;;;;;10402496;28;20251;-79
2024/01/25 10:12:42;;;;;;;0.30;0.30;;;10.80;99.30;;;;;;10414876;28;20209;-80
2024/01/25 10:17:45;;;;;;;0.30;0.30;;;10.80;99.20;;;;;;10428432;28;20711;-79
2024/01/25 10:22:47;;;;;;;0.20;0.20;;;10.80;99.50;;;;;;10415006;28;20222;-80
2024/01/25 10:27:51;;;;;;;0.20;0.20;;;10.80;99.20;;;;;;10421417;28;20221;-80
2024/01/25 10:32:55;;;;;;;0.30;0.30;;;10.80;98.40;;;;;;10421773;28;20203;-79
2024/01/25 10:37:57;;;;;;;0.30;0.30;;;10.80;98.80;;;;;;10418126;28;20260;-79
2024/01/25 10:43:01;;;;;;;0.30;0.30;;;10.80;99.30;;;;;;10401997;28;20218;-79
2024/01/25 10:48:04;;;;;;;0.30;0.30;;;10.80;99.30;;;;;;10422873;28;20656;-79
2024/01/25 10:53:08;;;;;;;0.30;0.30;;;10.80;99.80;;;;;;10429444;28;20197;-79
2024/01/25 10:58:14;;;;;;;0.30;0.30;;;10.80;99.90;;;;;;10410707;28;20817;-80
2024/01/25 11:03:18;;;;;;;0.20;0.20;;;10.90;99.80;;;;;;10404396;28;20218;-79
2024/01/25 11:08:21;;;;;;;0.20;0.20;;;10.90;99.90;;;;;;10424235;28;20206;-79
2024/01/25 11:13:29;;;;;;;0.30;0.30;;;10.90;99.90;;;;;;10424658;28;20249;-79
2024/01/25 11:18:31;;;;;;;0.20;0.20;;;11.10;99.40;;;;;;10424528;28;20222;-80
2024/01/25 11:23:34;;;;;;;0.30;0.30;;;11.10;98.90;;;;;;10422308;28;20252;-79
2024/01/25 11:28:37;;;;;;;0.30;0.30;;;11.20;99.50;;;;;;10422048;28;20226;-79
2024/01/25 11:33:41;;;;;;;0.30;0.30;;;11.30;98.90;;;;;;10419600;28;20198;-80
2024/01/25 11:38:43;;;;;;;0.30;0.30;;;11.30;99.10;;;;;;10417563;28;20226;-80
2024/01/25 11:43:49;;;;;;;0.40;0.40;;;11.40;99.30;;;;;;10401761;28;20287;-78
2024/01/25 11:48:52;;;;;;;0.00;0.00;;;11.40;99.20;;;;;;10418897;28;20217;-79
2024/01/25 11:53:55;;;;;;;0.40;0.40;;;11.40;98.90;;;;;;10430921;28;20263;-80
2024/01/25 11:58:59;;;;;;;0.50;0.50;;;11.40;98.40;;;;;;10411590;28;20202;-80
2024/01/25 12:04:02;;;;;;;0.30;0.30;;;11.40;98.40;;;;;;10420327;28;20225;-80
2024/01/25 12:09:09;;;;;;;0.40;0.40;;;11.40;98.50;;;;;;10427476;28;20247;-80
2024/01/25 12:14:13;;;;;;;0.50;0.50;;;11.30;98.30;;;;;;10432997;28;20280;-80
2024/01/25 12:19:16;;;;;;;0.40;0.40;;;11.30;98.80;;;;;;10424286;28;20217;-80
2024/01/25 12:24:20;;;;;;;0.30;0.30;;;11.30;97.60;;;;;;10414065;28;20728;-79
2024/01/25 12:29:24;;;;;;;0.40;0.40;;;11.30;98.30;;;;;;10423117;28;20543;-79
2024/01/25 12:34:26;;;;;;;0.30;0.30;;;11.30;98.40;;;;;;10430319;28;20251;-79
2024/01/25 12:39:28;;;;;;;0.30;0.30;;;11.30;98.50;;;;;;10421813;28;20202;-80
2024/01/25 12:44:32;;;;;;;0.40;0.40;;;11.30;98.70;;;;;;10409492;28;20226;-80
2024/01/25 12:49:34;;;;;;;0.30;0.30;;;11.30;98.40;;;;;;10401146;28;20210;-79
2024/01/25 12:54:37;;;;;;;0.30;0.30;;;11.30;98.50;;;;;;10417484;28;20703;-80
2024/01/25 12:59:41;;;;;;;0.30;0.30;;;11.30;98.40;;;;;;10419016;28;20206;-80
2024/01/25 13:04:44;;;;;;;0.30;0.30;;;11.30;98.50;;;;;;10408398;28;20221;-79
2024/01/25 13:09:46;;;;;;;0.30;0.30;;;11.20;98.50;;;;;;10431971;28;20209;-80
2024/01/25 13:14:50;;;;;;;0.20;0.20;;;11.20;98.80;;;;;;10424383;28;20236;-79
2024/01/25 13:19:52;;;;;;;0.30;0.30;;;11.20;97.90;;;;;;10432081;28;20666;-79
2024/01/25 13:24:55;;;;;;;0.30;0.30;;;11.20;98.60;;;;;;10405673;28;20245;-78
2024/01/25 13:29:58;;;;;;;0.37;0.37;;;11.10;98.80;;;;;;10430028;28;20197;-79
2024/01/25 13:35:01;;;;;;;0.30;0.30;;;11.20;98.00;;;;;;10424696;28;20229;-79
2024/01/25 13:40:04;;;;;;;0.30;0.30;;;11.30;97.90;;;;;;10405923;28;20189;-79
2024/01/25 13:45:09;;;;;;;0.30;0.30;;;11.30;98.00;;;;;;10433366;28;20236;-80
2024/01/25 13:50:11;;;;;;;0.40;0.40;;;11.30;97.90;;;;;;10424293;28;20248;-80
2024/01/25 13:55:14;;;;;;;0.30;0.30;;;11.30;98.60;;;;;;10443709;28;20248;-80
2024/01/25 14:00:20;;;;;;;0.40;0.40;;;11.30;99.00;;;;;;10445914;28;20221;-79
2024/01/25 14:05:23;;;;;;;0.40;0.40;;;11.20;99.70;;;;;;10438254;28;20230;-79
2024/01/25 14:10:27;;;;;;;0.40;0.40;;;11.10;99.90;;;;;;10440341;28;20716;-79
2024/01/25 14:15:31;;;;;;;0.20;0.20;;;11.10;99.90;;;;;;10453960;28;20229;-78
2024/01/25 14:20:34;;;;;;;0.40;0.40;;;11.10;99.90;;;;;;10456564;28;20214;-79
2024/01/25 14:25:36;;;;;;;0.30;0.30;;;11.00;99.90;;;;;;10429540;28;20226;-80
2024/01/25 14:30:40;;;;;;;0.30;0.30;;;11.00;99.90;;;;;;10422454;28;20194;-78
2024/01/25 14:35:43;;;;;;;0.40;0.40;;;11.00;99.90;;;;;;10415621;28;20218;-79
2024/01/25 14:40:46;;;;;;;0.50;0.50;;;11.00;99.90;;;;;;10421287;28;20221;-80
2024/01/25 14:45:49;;;;;;;0.53;0.53;;;11.00;99.90;;;;;;10424430;28;20303;-79
2024/01/25 14:50:52;;;;;;;0.40;0.40;;;10.90;99.90;;;;;;10417717;28;20594;-78
2024/01/25 14:55:54;;;;;;;0.50;0.50;;;10.90;99.90;;;;;;10401461;28;20235;-80
2024/01/25 15:00:58;;;;;;;0.50;0.50;;;10.90;99.90;;;;;;10415732;28;20218;-80
2024/01/25 15:06:00;;;;;;;0.50;0.50;;;10.90;99.90;;;;;;10422276;28;20213;-80
2024/01/25 15:11:03;;;;;;;0.40;0.40;;;11.00;99.90;;;;;;10426689;28;20193;-79
2024/01/25 15:16:08;;;;;;;0.50;0.50;;;10.90;99.90;;;;;;10423696;28;20593;-79
2024/01/25 15:21:10;;;;;;;0.60;0.60;;;10.90;99.90;;;;;;10421209;28;20233;-78
2024/01/25 15:26:13;;;;;;;0.60;0.60;;;10.90;99.90;;;;;;10419823;28;20226;-79
2024/01/25 15:31:18;;;;;;;0.50;0.50;;;10.90;99.90;;;;;;10416997;28;20194;-79
2024/01/25 15:36:22;;;;;;;0.40;0.40;;;11.00;99.90;;;;;;10400236;28;20287;-79
2024/01/25 15:41:26;;;;;;;0.50;0.50;;;11.10;99.90;;;;;;10428702;28;20239;-79
2024/01/25 15:46:30;;;;;;;0.60;0.60;;;11.10;99.90;;;;;;10422564;28;20225;-80
2024/01/25 15:51:32;;;;;;;0.60;0.60;;;11.10;99.90;;;;;;10428656;28;20197;-80
2024/01/25 15:56:35;;;;;;;0.23;0.23;;;11.10;99.90;;;;;;10423911;28;20290;-80
2024/01/25 16:01:38;;;;;;;0.50;0.50;;;11.00;99.90;;;;;;10422286;28;20213;-80
2024/01/25 16:06:41;;;;;;;0.50;0.50;;;11.00;99.90;;;;;;10412753;28;20226;-81
2024/01/25 16:11:43;;;;;;;0.40;0.40;;;11.00;99.90;;;;;;10425315;28;20671;-81
2024/01/25 16:16:47;;;;;;;0.30;0.30;;;11.00;99.90;;;;;;10434048;28;20214;-81
2024/01/25 16:21:49;;;;;;;0.50;0.50;;;11.10;99.90;;;;;;10438301;28;20226;-80
2024/01/25 16:26:52;;;;;;;0.40;0.40;;;11.10;99.90;;;;;;10411594;28;20233;-81
2024/01/25 16:31:55;;;;;;;0.60;0.60;;;11.10;99.90;;;;;;10400935;28;20198;-81
2024/01/25 16:36:58;;;;;;;0.60;0.60;;;11.10;99.90;;;;;;10411100;28;20252;-81
2024/01/25 16:42:00;;;;;;;0.40;0.40;;;11.10;99.90;;;;;;10417028;28;20259;-81
2024/01/25 16:47:04;;;;;;;0.50;0.50;;;11.10;99.90;;;;;;10400711;28;20237;-81
2024/01/25 16:52:07;;;;;;;0.50;0.50;;;11.10;99.90;;;;;;10427735;28;20456;-80
2024/01/25 16:57:09;;;;;;;0.20;0.20;;;11.10;99.90;;;;;;10425845;28;20718;-79
2024/01/25 17:02:13;;;;;;;0.40;0.40;;;11.10;99.90;;;;;;10417757;28;20711;-80
2024/01/25 17:07:15;;;;;;;0.40;0.40;;;11.10;99.90;;;;;;10415011;28;20221;-79
2024/01/25 17:12:17;;;;;;;0.60;0.60;;;11.00;99.90;;;;;;10418610;28;20674;-80
2024/01/25 17:17:21;;;;;;;0.30;0.30;;;11.00;99.90;;;;;;10416052;28;20221;-80
2024/01/25 17:22:24;;;;;;;0.40;0.40;;;11.00;99.90;;;;;;10416019;28;20641;-80
2024/01/25 17:27:26;;;;;;;0.60;0.60;;;11.00;99.90;;;;;;10416170;28;20218;-80
2024/01/25 17:32:30;;;;;;;0.60;0.60;;;11.00;99.90;;;;;;10422269;28;20202;-79
2024/01/25 17:37:32;;;;;;;0.60;0.60;;;10.90;99.90;;;;;;10412092;28;20241;-79
2024/01/25 17:42:34;;;;;;;0.60;0.60;;;10.90;99.90;;;;;;10412656;28;20541;-80
2024/01/25 17:47:38;;;;;;;0.40;0.40;;;10.70;99.90;;;;;;10426580;28;20303;-80
2024/01/25 17:52:41;;;;;;;1.00;1.00;;;10.50;99.90;;;;;;10400968;28;20197;-80
2024/01/25 17:57:43;;;;;;;0.20;0.20;;;10.40;99.90;;;;;;10398044;28;20625;-80
2024/01/25 18:02:47;;;;;;;1.03;1.03;;;10.30;99.90;;;;;;10414275;28;20222;-80
2024/01/25 18:07:49;;;;;;;1.17;1.17;;;10.20;99.90;;;;;;10406376;28;20230;-78
2024/01/25 18:12:52;;;;;;;1.17;1.17;;;10.10;99.90;;;;;;10376802;28;20272;-79
2024/01/25 18:17:55;;;;;;;0.93;0.93;;;10.00;99.90;;;;;;10432187;28;20217;-78
2024/01/25 18:22:58;;;;;;;0.80;0.80;;;10.00;99.90;;;;;;10415769;28;20295;-78
2024/01/25 18:28:00;;;;;;;1.10;1.10;;;10.00;99.90;;;;;;10416028;28;20654;-77
2024/01/25 18:33:04;;;;;;;1.20;1.20;;;10.00;99.90;;;;;;10414588;28;20244;-78
2024/01/25 18:38:07;;;;;;;1.00;1.00;;;9.90;99.90;;;;;;10414586;28;20724;-78
2024/01/25 18:43:09;;;;;;;1.00;1.00;;;9.90;99.90;;;;;;10413721;28;20222;-80
2024/01/25 18:48:13;;;;;;;0.90;0.90;;;9.90;99.90;;;;;;10419687;28;20711;-81
2024/01/25 18:53:15;;;;;;;0.90;0.90;;;9.90;99.90;;;;;;10427996;28;20200;-79
2024/01/25 18:58:18;;;;;;;0.90;0.90;;;10.00;99.90;;;;;;10424269;28;20237;-79
2024/01/25 19:03:22;;;;;;;0.40;0.40;;;10.00;99.90;;;;;;10415996;28;20636;-79
2024/01/25 19:08:27;;;;;;;0.97;0.97;;;10.10;99.90;;;;;;10422322;28;20232;-79
2024/01/25 19:13:29;;;;;;;0.70;0.70;;;10.10;99.90;;;;;;10422715;28;20248;-80
2024/01/25 19:18:33;;;;;;;0.77;0.77;;;10.20;99.90;;;;;;10421540;28;20221;-80
2024/01/25 19:23:36;;;;;;;0.90;0.90;;;10.20;99.90;;;;;;10422032;28;20647;-79
2024/01/25 19:28:40;;;;;;;0.90;0.90;;;10.30;99.90;;;;;;10412935;28;20776;-80
2024/01/25 19:33:44;;;;;;;1.00;1.00;;;10.30;99.90;;;;;;10427256;28;20201;-80
2024/01/25 19:38:46;;;;;;;0.80;0.80;;;10.30;99.90;;;;;;10423294;28;20230;-80
2024/01/25 19:43:48;;;;;;;0.70;0.70;;;10.40;99.90;;;;;;10389457;28;20221;-80
2024/01/25 19:48:52;;;;;;;0.70;0.70;;;10.40;99.90;;;;;;10420836;28;20222;-80
2024/01/25 19:53:55;;;;;;;0.90;0.90;;;10.40;99.90;;;;;;10428158;28;20278;-80
2024/01/25 19:59:00;;;;;;;0.60;0.60;;;10.40;99.90;;;;;;10431688;28;20198;-79
2024/01/25 20:04:05;;;;;;;0.70;0.70;;;10.50;99.90;;;;;;10422343;28;20229;-79
2024/01/25 20:09:07;;;;;;;0.80;0.80;;;10.50;99.90;;;;;;10405473;28;20217;-79
2024/01/25 20:14:10;;;;;;;1.00;1.00;;;10.50;99.90;;;;;;10423085;28;20208;-79
2024/01/25 20:19:14;;;;;;;0.70;0.70;;;10.60;99.90;;;;;;10425222;28;20198;-80
2024/01/25 20:24:16;;;;;;;0.77;0.77;;;10.60;99.90;;;;;;10438877;28;20222;-78
2024/01/25 20:29:19;;;;;;;0.70;0.70;;;10.60;99.90;;;;;;10449289;28;20202;-78
2024/01/25 20:34:22;;;;;;;1.00;1.00;;;10.60;99.90;;;;;;10455799;28;20222;-79
2024/01/25 20:39:26;;;;;;;0.80;0.80;;;10.60;99.90;;;;;;10434892;28;20206;-80
2024/01/25 20:44:28;;;;;;;0.90;0.90;;;10.60;99.90;;;;;;10418421;28;20244;-79
2024/01/25 20:49:32;;;;;;;0.60;0.60;;;10.60;99.90;;;;;;10434709;28;20210;-79
2024/01/25 20:54:35;;;;;;;1.10;1.10;;;10.60;99.90;;;;;;10435116;28;20632;-80
2024/01/25 20:59:37;;;;;;;0.90;0.90;;;10.50;99.90;;;;;;10425025;28;20217;-79
2024/01/25 21:04:41;;;;;;;0.60;0.60;;;10.50;99.90;;;;;;10446276;28;20217;-79
2024/01/25 21:09:44;;;;;;;0.87;0.87;;;10.50;99.90;;;;;;10421078;28;20205;-79
2024/01/25 21:14:47;;;;;;;1.10;1.10;;;10.40;99.90;;;;;;10425139;28;20214;-79
2024/01/25 21:19:51;;;;;;;1.20;1.20;;;10.30;99.90;;;;;;10424607;28;20193;-80
2024/01/25 21:24:53;;;;;;;1.00;1.00;;;10.30;99.90;;;;;;10423288;28;20723;-80
2024/01/25 21:29:56;;;;;;;1.10;1.10;;;10.30;99.90;;;;;;10422141;28;20206;-80
2024/01/25 21:35:00;;;;;;;0.60;0.60;;;10.30;99.90;;;;;;10404483;28;20214;-80
2024/01/25 21:40:03;;;;;;;0.90;0.90;;;10.30;99.90;;;;;;10419454;28;20210;-80
2024/01/25 21:45:06;;;;;;;0.70;0.70;;;10.30;99.90;;;;;;10419574;28;20241;-80
2024/01/25 21:50:11;;;;;;;0.73;0.73;;;10.30;99.90;;;;;;10409612;28;20619;-79
2024/01/25 21:55:13;;;;;;;0.90;0.90;;;10.30;99.90;;;;;;10428786;28;20684;-80
2024/01/25 22:00:17;;;;;;;1.10;1.10;;;10.40;99.90;;;;;;10427673;28;20717;-79
2024/01/25 22:05:21;;;;;;;0.80;0.80;;;10.40;99.90;;;;;;10403667;28;20225;-80
2024/01/25 22:10:24;;;;;;;0.90;0.90;;;10.40;99.90;;;;;;10408642;28;20197;-80
2024/01/25 22:15:26;;;;;;;0.70;0.70;;;10.50;99.90;;;;;;10421809;28;20470;-79
2024/01/25 22:20:30;;;;;;;0.70;0.70;;;10.50;99.90;;;;;;10423737;28;20198;-79
2024/01/25 22:25:32;;;;;;;1.00;1.00;;;10.50;99.90;;;;;;10431132;28;20229;-80
2024/01/25 22:30:35;;;;;;;0.70;0.70;;;10.40;99.90;;;;;;10430905;28;20668;-79
2024/01/25 22:35:38;;;;;;;0.90;0.90;;;10.50;99.90;;;;;;10428078;28;20234;-79
2024/01/25 22:40:41;;;;;;;0.80;0.80;;;10.50;99.90;;;;;;10431989;28;20210;-80
2024/01/25 22:45:43;;;;;;;0.97;0.97;;;10.50;99.90;;;;;;10427090;28;20230;-80
2024/01/25 22:50:47;;;;;;;1.10;1.10;;;10.60;99.90;;;;;;10430652;28;20213;-80
2024/01/25 22:55:49;;;;;;;1.10;1.10;;;10.60;99.90;;;;;;10418249;28;20241;-80
2024/01/25 23:00:51;;;;;;;0.47;0.47;;;10.60;99.90;;;;;;10428151;28;20194;-80
2024/01/25 23:05:55;;;;;;;0.97;0.97;;;10.60;99.90;;;;;;10432136;28;20279;-80
2024/01/25 23:10:58;;;;;;;0.87;0.87;;;10.60;99.90;;;;;;10405119;28;20216;-79
2024/01/25 23:16:00;;;;;;;1.10;1.10;;;10.70;99.90;;;;;;10427974;28;20917;-80
2024/01/25 23:21:04;;;;;;;1.00;1.00;;;10.70;99.90;;;;;;10428576;28;20237;-80
2024/01/25 23:26:07;;;;;;;1.20;1.20;;;10.70;99.90;;;;;;10431197;28;20229;-80
2024/01/25 23:31:09;;;;;;;0.90;0.90;;;10.70;99.90;;;;;;10428365;28;20206;-80
2024/01/25 23:36:13;;;;;;;0.83;0.83;;;10.70;99.90;;;;;;10433421;28;20279;-79
2024/01/25 23:41:15;;;;;;;0.80;0.80;;;10.70;99.90;;;;;;10434463;28;20213;-79
2024/01/25 23:46:18;;;;;;;1.10;1.10;;;10.70;99.90;;;;;;10422703;28;20280;-79
2024/01/25 23:51:21;;;;;;;0.90;0.90;;;10.70;99.90;;;;;;10433572;28;20201;-79
2024/01/25 23:56:24;;;;;;;0.93;0.93;;;10.70;99.90;;;;;;10434750;28;20225;-80
